Time,TemperatureF,DewpointF,PressureIn,WindDirection,WindDirectionDegrees,WindSpeedMPH,WindSpeedGustMPH,Humidity,HourlyPrecipIn,Conditions,Clouds,dailyrainin,SolarRadiationWatts/m^2,SoftwareType,DateUTC
2013-04-20 00:02:00,51.0,26.0,-100.00,ESE,102,3.0,8.0,37,0.00,,,0.00,0.000000,,2013-04-20 05:02:00,
2013-04-20 00:12:00,51.0,26.0,-100.00,ESE,102,3.0,8.0,37,0.00,,,0.00,0.000000,,2013-04-20 05:12:00,
2013-04-20 00:22:00,51.0,26.0,-100.00,ESE,102,3.0,8.0,37,0.00,,,0.00,0.000000,,2013-04-20 05:22:00,
2013-04-20 00:32:00,51.0,26.0,-100.00,ESE,102,3.0,8.0,37,0.00,,,0.00,0.000000,,2013-04-20 05:32:00,
2013-04-20 01:02:00,50.0,26.0,-100.00,ESE,103,4.0,9.0,39,0.00,,,0.00,0.000000,,2013-04-20 06:02:00,
2013-04-20 01:12:00,50.0,26.0,-100.00,ESE,103,4.0,9.0,39,0.00,,,0.00,0.000000,,2013-04-20 06:12:00,
2013-04-20 01:21:00,50.0,26.0,-100.00,ESE,103,4.0,9.0,39,0.00,,,0.00,0.000000,,2013-04-20 06:21:00,
2013-04-20 01:32:00,50.0,26.0,-100.00,ESE,103,4.0,9.0,39,0.00,,,0.00,0.000000,,2013-04-20 06:32:00,
2013-04-20 02:01:00,48.0,27.0,-100.00,SE,140,4.0,9.0,43,0.00,,,0.00,0.000000,,2013-04-20 07:01:00,
2013-04-20 02:11:00,48.0,27.0,-100.00,SE,140,4.0,9.0,43,0.00,,,0.00,0.000000,,2013-04-20 07:11:00,
2013-04-20 02:21:00,48.0,27.0,-100.00,SE,140,4.0,9.0,43,0.00,,,0.00,0.000000,,2013-04-20 07:21:00,
2013-04-20 02:32:00,48.0,27.0,-100.00,SE,140,4.0,9.0,43,0.00,,,0.00,0.000000,,2013-04-20 07:32:00,
2013-04-20 03:02:00,48.0,27.0,-100.00,SSE,153,5.0,9.0,43,0.00,,,0.00,0.000000,,2013-04-20 08:02:00,
2013-04-20 03:11:00,48.0,27.0,-100.00,SSE,153,5.0,9.0,43,0.00,,,0.00,0.000000,,2013-04-20 08:11:00,
2013-04-20 03:21:00,48.0,27.0,-100.00,SSE,153,5.0,9.0,43,0.00,,,0.00,0.000000,,2013-04-20 08:21:00,
2013-04-20 03:32:00,48.0,27.0,-100.00,SSE,153,5.0,9.0,43,0.00,,,0.00,0.000000,,2013-04-20 08:32:00,
2013-04-20 04:01:00,47.0,26.0,-100.00,SE,146,4.0,7.0,44,0.00,,,0.00,0.000000,,2013-04-20 09:01:00,
2013-04-20 04:12:00,47.0,26.0,-100.00,SE,146,4.0,7.0,44,0.00,,,0.00,0.000000,,2013-04-20 09:12:00,
2013-04-20 04:21:00,47.0,26.0,-100.00,SE,146,4.0,7.0,44,0.00,,,0.00,0.000000,,2013-04-20 09:21:00,
2013-04-20 04:33:00,47.0,26.0,-100.00,SE,146,4.0,7.0,44,0.00,,,0.00,0.000000,,2013-04-20 09:33:00,
2013-04-20 05:03:00,46.0,28.0,-100.00,South,170,6.0,8.0,50,0.00,,,0.00,0.000000,,2013-04-20 10:03:00,
2013-04-20 05:13:00,46.0,28.0,-100.00,South,170,6.0,8.0,50,0.00,,,0.00,0.000000,,2013-04-20 10:13:00,
2013-04-20 05:23:00,46.0,28.0,-100.00,South,170,6.0,8.0,50,0.00,,,0.00,0.000000,,2013-04-20 10:23:00,
2013-04-20 05:33:00,46.0,28.0,-100.00,South,170,6.0,8.0,50,0.00,,,0.00,0.000000,,2013-04-20 10:33:00,
2013-04-20 06:02:00,45.0,28.0,-100.00,South,174,5.0,8.0,52,0.00,,,0.00,0.000000,,2013-04-20 11:02:00,
2013-04-20 06:12:00,45.0,28.0,-100.00,South,174,5.0,8.0,52,0.00,,,0.00,0.000000,,2013-04-20 11:12:00,
2013-04-20 06:23:00,45.0,28.0,-100.00,South,174,5.0,8.0,52,0.00,,,0.00,0.000000,,2013-04-20 11:23:00,
2013-04-20 06:32:00,45.0,28.0,-100.00,South,174,5.0,8.0,52,0.00,,,0.00,0.000000,,2013-04-20 11:32:00,
2013-04-20 07:02:00,45.0,28.0,-100.00,South,181,7.0,8.0,51,0.00,,,0.00,0.000000,,2013-04-20 12:02:00,
2013-04-20 07:11:00,45.0,28.0,-100.00,South,181,7.0,8.0,51,0.00,,,0.00,0.000000,,2013-04-20 12:11:00,
2013-04-20 07:22:00,45.0,28.0,-100.00,South,181,7.0,8.0,51,0.00,,,0.00,0.000000,,2013-04-20 12:22:00,
2013-04-20 07:32:00,45.0,28.0,-100.00,South,181,7.0,8.0,51,0.00,,,0.00,0.000000,,2013-04-20 12:32:00,
2013-04-20 08:02:00,46.0,28.0,-100.00,South,172,6.0,12.0,50,0.00,,,0.00,20.000000,,2013-04-20 13:02:00,
2013-04-20 08:11:00,46.0,28.0,-100.00,South,172,6.0,12.0,50,0.00,,,0.00,20.000000,,2013-04-20 13:11:00,
2013-04-20 08:21:00,46.0,28.0,-100.00,South,172,6.0,12.0,50,0.00,,,0.00,20.000000,,2013-04-20 13:21:00,
2013-04-20 08:32:00,46.0,28.0,-100.00,South,172,6.0,12.0,50,0.00,,,0.00,20.000000,,2013-04-20 13:32:00,
2013-04-20 09:02:00,49.0,30.0,-100.00,SSE,162,7.0,11.0,47,0.00,,,0.00,186.000000,,2013-04-20 14:02:00,
2013-04-20 09:11:00,49.0,30.0,-100.00,SSE,162,7.0,11.0,47,0.00,,,0.00,186.000000,,2013-04-20 14:11:00,
2013-04-20 09:21:00,49.0,30.0,-100.00,SSE,162,7.0,11.0,47,0.00,,,0.00,186.000000,,2013-04-20 14:21:00,
2013-04-20 09:32:00,49.0,30.0,-100.00,SSE,162,7.0,11.0,47,0.00,,,0.00,186.000000,,2013-04-20 14:32:00,
2013-04-20 10:01:00,54.0,29.0,-100.00,SSE,158,10.0,17.0,38,0.00,,,0.00,399.000000,,2013-04-20 15:01:00,
2013-04-20 10:11:00,54.0,29.0,-100.00,SSE,158,10.0,17.0,38,0.00,,,0.00,399.000000,,2013-04-20 15:11:00,
2013-04-20 10:21:00,54.0,29.0,-100.00,SSE,158,10.0,17.0,38,0.00,,,0.00,399.000000,,2013-04-20 15:21:00,
2013-04-20 10:33:00,54.0,29.0,-100.00,SSE,158,10.0,17.0,38,0.00,,,0.00,399.000000,,2013-04-20 15:33:00,
2013-04-20 11:03:00,57.0,27.0,-100.00,SSE,157,12.0,20.0,32,0.00,,,0.00,601.000000,,2013-04-20 16:03:00,
2013-04-20 11:12:00,57.0,27.0,-100.00,SSE,157,12.0,20.0,32,0.00,,,0.00,601.000000,,2013-04-20 16:12:00,
2013-04-20 11:23:00,57.0,27.0,-100.00,SSE,157,12.0,20.0,32,0.00,,,0.00,601.000000,,2013-04-20 16:23:00,
2013-04-20 11:32:00,57.0,27.0,-100.00,SSE,157,12.0,20.0,32,0.00,,,0.00,601.000000,,2013-04-20 16:32:00,
2013-04-20 12:02:00,61.0,26.0,-100.00,SSE,155,11.0,19.0,26,0.00,,,0.00,771.000000,,2013-04-20 17:02:00,
2013-04-20 12:12:00,61.0,26.0,-100.00,SSE,155,11.0,19.0,26,0.00,,,0.00,771.000000,,2013-04-20 17:12:00,
2013-04-20 12:23:00,61.0,26.0,-100.00,SSE,155,11.0,19.0,26,0.00,,,0.00,771.000000,,2013-04-20 17:23:00,
2013-04-20 12:33:00,61.0,26.0,-100.00,SSE,155,11.0,19.0,26,0.00,,,0.00,771.000000,,2013-04-20 17:33:00,
2013-04-20 13:02:00,63.0,25.0,-100.00,SSE,150,9.0,18.0,23,0.00,,,0.00,888.000000,,2013-04-20 18:02:00,
2013-04-20 13:12:00,63.0,25.0,-100.00,SSE,150,9.0,18.0,23,0.00,,,0.00,888.000000,,2013-04-20 18:12:00,
2013-04-20 13:22:00,63.0,25.0,-100.00,SSE,150,9.0,18.0,23,0.00,,,0.00,888.000000,,2013-04-20 18:22:00,
2013-04-20 13:32:00,63.0,25.0,-100.00,SSE,150,9.0,18.0,23,0.00,,,0.00,888.000000,,2013-04-20 18:32:00,
2013-04-20 14:02:00,66.0,25.0,-100.00,SSE,149,11.0,21.0,21,0.00,,,0.00,942.000000,,2013-04-20 19:02:00,
2013-04-20 14:11:00,66.0,25.0,-100.00,SSE,149,11.0,21.0,21,0.00,,,0.00,942.000000,,2013-04-20 19:11:00,
2013-04-20 14:21:00,66.0,25.0,-100.00,SSE,149,11.0,21.0,21,0.00,,,0.00,942.000000,,2013-04-20 19:21:00,
2013-04-20 14:32:00,66.0,25.0,-100.00,SSE,149,11.0,21.0,21,0.00,,,0.00,942.000000,,2013-04-20 19:32:00,
2013-04-20 15:02:00,67.0,25.0,-100.00,SSE,162,10.0,22.0,20,0.00,,,0.00,937.000000,,2013-04-20 20:02:00,
2013-04-20 15:12:00,67.0,25.0,-100.00,SSE,162,10.0,22.0,20,0.00,,,0.00,937.000000,,2013-04-20 20:12:00,
2013-04-20 15:21:00,67.0,25.0,-100.00,SSE,162,10.0,22.0,20,0.00,,,0.00,937.000000,,2013-04-20 20:21:00,
2013-04-20 15:32:00,67.0,25.0,-100.00,SSE,162,10.0,22.0,20,0.00,,,0.00,937.000000,,2013-04-20 20:32:00,
2013-04-20 16:01:00,68.0,23.0,-100.00,SSE,164,14.0,22.0,18,0.00,,,0.00,871.000000,,2013-04-20 21:01:00,
2013-04-20 16:12:00,68.0,23.0,-100.00,SSE,164,14.0,22.0,18,0.00,,,0.00,871.000000,,2013-04-20 21:12:00,
2013-04-20 16:22:00,68.0,23.0,-100.00,SSE,164,14.0,22.0,18,0.00,,,0.00,871.000000,,2013-04-20 21:22:00,
2013-04-20 16:33:00,68.0,23.0,-100.00,SSE,164,14.0,22.0,18,0.00,,,0.00,871.000000,,2013-04-20 21:33:00,
2013-04-20 17:02:00,69.0,25.0,-100.00,SSE,164,13.0,24.0,19,0.00,,,0.00,742.000000,,2013-04-20 22:02:00,
2013-04-20 17:12:00,69.0,25.0,-100.00,SSE,164,13.0,24.0,19,0.00,,,0.00,742.000000,,2013-04-20 22:12:00,
2013-04-20 17:22:00,69.0,25.0,-100.00,SSE,164,13.0,24.0,19,0.00,,,0.00,742.000000,,2013-04-20 22:22:00,
2013-04-20 17:32:00,69.0,25.0,-100.00,SSE,164,13.0,24.0,19,0.00,,,0.00,742.000000,,2013-04-20 22:32:00,
2013-04-20 18:02:00,69.0,25.0,-100.00,SSE,153,13.0,23.0,19,0.00,,,0.00,567.000000,,2013-04-20 23:02:00,
2013-04-20 18:11:00,69.0,25.0,-100.00,SSE,153,13.0,23.0,19,0.00,,,0.00,567.000000,,2013-04-20 23:11:00,
2013-04-20 18:22:00,69.0,25.0,-100.00,SSE,153,13.0,23.0,19,0.00,,,0.00,567.000000,,2013-04-20 23:22:00,
2013-04-20 18:32:00,69.0,25.0,-100.00,SSE,153,13.0,23.0,19,0.00,,,0.00,567.000000,,2013-04-20 23:32:00,
2013-04-20 19:01:00,68.0,27.0,-100.00,SE,144,10.0,23.0,21,0.00,,,0.00,364.000000,,2013-04-21 00:01:00,
2013-04-20 19:12:00,68.0,27.0,-100.00,SE,144,10.0,23.0,21,0.00,,,0.00,364.000000,,2013-04-21 00:12:00,
2013-04-20 19:22:00,68.0,27.0,-100.00,SE,144,10.0,23.0,21,0.00,,,0.00,364.000000,,2013-04-21 00:22:00,
2013-04-20 19:32:00,68.0,27.0,-100.00,SE,144,10.0,23.0,21,0.00,,,0.00,364.000000,,2013-04-21 00:32:00,
2013-04-20 20:01:00,65.0,26.0,-100.00,SE,143,8.0,19.0,23,0.00,,,0.00,156.000000,,2013-04-21 01:01:00,
2013-04-20 20:12:00,65.0,26.0,-100.00,SE,143,8.0,19.0,23,0.00,,,0.00,156.000000,,2013-04-21 01:12:00,
2013-04-20 20:21:00,65.0,26.0,-100.00,SE,143,8.0,19.0,23,0.00,,,0.00,156.000000,,2013-04-21 01:21:00,
2013-04-20 20:31:00,65.0,26.0,-100.00,SE,143,8.0,19.0,23,0.00,,,0.00,156.000000,,2013-04-21 01:31:00,
2013-04-20 21:02:00,61.0,28.0,-100.00,SE,129,5.0,12.0,28,0.00,,,0.00,11.000000,,2013-04-21 02:02:00,
2013-04-20 21:11:00,61.0,28.0,-100.00,SE,129,5.0,12.0,28,0.00,,,0.00,11.000000,,2013-04-21 02:11:00,
2013-04-20 21:21:00,61.0,28.0,-100.00,SE,129,5.0,12.0,28,0.00,,,0.00,11.000000,,2013-04-21 02:21:00,
2013-04-20 21:32:00,61.0,28.0,-100.00,SE,129,5.0,12.0,28,0.00,,,0.00,11.000000,,2013-04-21 02:32:00,
2013-04-20 22:01:00,59.0,28.0,-100.00,ESE,112,6.0,12.0,31,0.00,,,0.00,0.000000,,2013-04-21 03:01:00,
2013-04-20 22:11:00,59.0,28.0,-100.00,ESE,112,6.0,12.0,31,0.00,,,0.00,0.000000,,2013-04-21 03:11:00,
2013-04-20 22:21:00,59.0,28.0,-100.00,ESE,112,6.0,12.0,31,0.00,,,0.00,0.000000,,2013-04-21 03:21:00,
2013-04-20 22:33:00,59.0,28.0,-100.00,ESE,112,6.0,12.0,31,0.00,,,0.00,0.000000,,2013-04-21 03:33:00,
2013-04-20 23:02:00,59.0,38.0,-100.00,SE,142,10.0,21.0,45,0.00,,,0.00,0.000000,,2013-04-21 04:02:00,
2013-04-20 23:12:00,59.0,38.0,-100.00,SE,142,10.0,21.0,45,0.00,,,0.00,0.000000,,2013-04-21 04:12:00,
2013-04-20 23:23:00,59.0,38.0,-100.00,SE,142,10.0,21.0,45,0.00,,,0.00,0.000000,,2013-04-21 04:23:00,
2013-04-20 23:33:00,59.0,38.0,-100.00,SE,142,10.0,21.0,45,0.00,,,0.00,0.000000,,2013-04-21 04:33:00,